Great Neck, New York
Current Conditions -  °F | °C
As of 3:51 PM on Friday 21 Nov 2014 (Local Time) from KLGA Reporting Station
Few Clouds Few Clouds  
Wind Chill: -4°   Ceiling: Unl
Heat Index:   Visibility: 10mi
Dew Point: -11°   Wind: 18mph
Humidity: 37%   Direction: 300°WNW
Pressure: 30.37"   Gusts: 25mph
Location:  40.8°N, 73.73°W
Report Text: KLGA 212051Z 30016G22KT 10SM FEW060 02/M11 A3037 RMK AO2 PK WND 30028/1956 SLP282 T00221111 53027
Loading
Personal Weather Stations






























Interactive Weather Map New forecast layout! Learn more

10-Day Weather Forecast

Advertisements
Track Severe Weather on mobile